createdAt,value
2019-05-19T00:00:32.142Z,100106.57
2019-05-19T00:05:55.743Z,100100.69
2019-05-19T00:11:18.435Z,100107.95
2019-05-19T00:16:41.863Z,100112.14
2019-05-19T00:22:05.086Z,100112.53
2019-05-19T00:27:27.663Z,100120.72
2019-05-19T00:32:50.522Z,100126.11
2019-05-19T00:38:14.082Z,100118.89
2019-05-19T00:43:37.700Z,100120.72
2019-05-19T00:49:00.588Z,100115.07
2019-05-19T00:54:23.786Z,100111.91
2019-05-19T00:59:47.811Z,100106.98
2019-05-19T01:05:11.034Z,100103.02
2019-05-19T01:10:33.576Z,100099.11
2019-05-19T01:15:56.760Z,100105.92
2019-05-19T01:21:20.217Z,100099.22
2019-05-19T01:26:43.718Z,100104.78
2019-05-19T01:32:07.267Z,100099.91
2019-05-19T01:37:30.832Z,100085.30
2019-05-19T01:42:53.870Z,100083.16
2019-05-19T01:48:17.079Z,100086.14
2019-05-19T01:53:40.293Z,100089.84
2019-05-19T01:59:03.973Z,100090.95
2019-05-19T02:04:27.054Z,100083.91
2019-05-19T02:09:50.642Z,100084.42
2019-05-19T02:15:13.954Z,100082.23
2019-05-19T02:20:37.061Z,100087.53
2019-05-19T02:25:59.630Z,100078.09
2019-05-19T02:31:22.246Z,100072.64
2019-05-19T02:36:44.908Z,100070.38
2019-05-19T02:42:08.011Z,100069.69
2019-05-19T02:47:32.836Z,100069.35
2019-05-19T02:52:56.015Z,100079.60
2019-05-19T02:58:20.218Z,100080.43
2019-05-19T03:03:43.508Z,100090.39
2019-05-19T03:09:06.139Z,100083.38
2019-05-19T03:14:29.176Z,100078.09
2019-05-19T03:19:51.800Z,100091.02
2019-05-19T03:25:14.441Z,100087.94
2019-05-19T03:30:49.821Z,100093.32
2019-05-19T03:36:12.926Z,100084.97
2019-05-19T03:41:35.628Z,100099.99
2019-05-19T03:46:58.721Z,100102.75
2019-05-19T03:52:21.749Z,100091.16
2019-05-19T03:57:44.829Z,100095.47
2019-05-19T04:03:08.351Z,100100.81
2019-05-19T04:08:30.941Z,100094.69
2019-05-19T04:13:53.698Z,100089.17
2019-05-19T04:19:16.330Z,100102.92
2019-05-19T04:24:41.039Z,100100.47
2019-05-19T04:30:04.605Z,100091.48
2019-05-19T04:35:27.995Z,100082.90
2019-05-19T04:40:51.315Z,100087.38
2019-05-19T04:46:14.881Z,100094.48
2019-05-19T04:51:37.543Z,100092.94
2019-05-19T04:57:00.508Z,100081.55
2019-05-19T05:02:24.989Z,100084.36
2019-05-19T05:07:48.713Z,100087.72
2019-05-19T05:13:11.990Z,100091.28
2019-05-19T05:18:35.286Z,100086.55
2019-05-19T05:23:58.481Z,100088.23
2019-05-19T05:29:21.132Z,100096.08
2019-05-19T05:34:43.972Z,100093.39
2019-05-19T05:40:07.010Z,100096.12
2019-05-19T05:45:29.918Z,100090.50
2019-05-19T05:50:52.892Z,100088.59
2019-05-19T05:56:15.477Z,100087.28
2019-05-19T06:01:38.905Z,100089.23
2019-05-19T06:07:01.571Z,100085.38
2019-05-19T06:12:25.113Z,100092.34
2019-05-19T06:17:48.390Z,100095.25
2019-05-19T06:23:11.362Z,100094.16
2019-05-19T06:28:35.037Z,100090.86
2019-05-19T06:33:58.315Z,100088.50
2019-05-19T06:39:21.252Z,100085.12
2019-05-19T06:47:06.472Z,100079.01
2019-05-19T06:52:31.622Z,100085.44
2019-05-19T06:57:56.114Z,100087.65
2019-05-19T07:03:20.977Z,100086.72
2019-05-19T07:08:45.985Z,100081.22
2019-05-19T07:14:09.703Z,100083.55
2019-05-19T07:19:34.171Z,100079.36
2019-05-19T07:24:58.626Z,100075.70
2019-05-19T07:30:22.549Z,100073.78
2019-05-19T07:35:47.278Z,100075.19
2019-05-19T07:41:11.884Z,100067.15
2019-05-19T07:46:36.495Z,100075.00
2019-05-19T07:52:01.011Z,100071.60
2019-05-19T07:57:24.667Z,100064.53
2019-05-19T08:02:48.623Z,100058.92
2019-05-19T08:08:13.130Z,100056.05
2019-05-19T08:13:37.915Z,100058.09
2019-05-19T08:19:02.978Z,100044.59
2019-05-19T08:24:27.794Z,100055.56
2019-05-19T08:29:51.734Z,100055.05
2019-05-19T08:35:15.515Z,100044.32
2019-05-19T08:40:40.456Z,100037.99
2019-05-19T08:46:04.957Z,100038.57
2019-05-19T08:51:29.431Z,100041.63
2019-05-19T08:56:53.408Z,100032.44
2019-05-19T09:02:17.828Z,100037.09
2019-05-19T09:07:42.559Z,100033.56
2019-05-19T09:13:07.731Z,100033.72
2019-05-19T09:18:32.314Z,100022.02
2019-05-19T09:23:56.854Z,100025.84
2019-05-19T09:29:21.967Z,100014.11
2019-05-19T09:34:45.725Z,100022.47
2019-05-19T09:40:10.786Z,100003.95
2019-05-19T09:45:35.451Z,100001.64
2019-05-19T09:50:59.661Z,99994.84
2019-05-19T09:56:24.320Z,99991.91
2019-05-19T10:01:49.031Z,99999.11
2019-05-19T10:07:13.638Z,99982.36
2019-05-19T10:12:37.742Z,99979.63
2019-05-19T10:18:02.290Z,99985.18
2019-05-19T10:23:26.670Z,99982.17
2019-05-19T10:28:51.194Z,99969.92
2019-05-19T10:34:15.684Z,99972.98
2019-05-19T10:39:39.643Z,99966.55
2019-05-19T10:45:04.592Z,99970.16
2019-05-19T10:50:28.241Z,99963.56
2019-05-19T10:55:52.511Z,99959.81
2019-05-19T11:01:17.237Z,99958.75
2019-05-19T11:06:40.936Z,99961.09
2019-05-19T11:12:05.611Z,99956.52
2019-05-19T11:17:29.537Z,99946.46
2019-05-19T11:22:53.518Z,99940.16
2019-05-19T11:28:17.268Z,99936.65
2019-05-19T11:33:41.874Z,99936.73
2019-05-19T11:39:07.719Z,99927.44
2019-05-19T11:44:31.937Z,99922.20
2019-05-19T11:49:56.684Z,99927.83
2019-05-19T11:55:21.032Z,99924.59
2019-05-19T12:00:45.135Z,99915.77
2019-05-19T12:06:09.902Z,99904.01
2019-05-19T12:11:34.208Z,99905.12
2019-05-19T12:16:58.569Z,99904.03
2019-05-19T12:22:23.448Z,99906.13
2019-05-19T12:27:48.357Z,99903.39
2019-05-19T12:33:13.042Z,99899.27
2019-05-19T12:38:37.757Z,99908.63
2019-05-19T12:44:02.574Z,99901.64
2019-05-19T12:49:27.235Z,99897.92
2019-05-19T12:54:51.088Z,99893.47
2019-05-19T13:00:15.187Z,99888.92
2019-05-19T13:05:39.886Z,99874.77
2019-05-19T13:11:03.800Z,99874.05
2019-05-19T13:16:28.671Z,99872.94
2019-05-19T13:21:53.549Z,99868.17
2019-05-19T13:27:17.852Z,99869.82
2019-05-19T13:32:42.569Z,99861.58
2019-05-19T13:38:07.022Z,99859.53
2019-05-19T13:43:31.897Z,99870.87
2019-05-19T13:48:56.376Z,99870.27
2019-05-19T13:54:20.805Z,99869.80
2019-05-19T13:59:45.377Z,99858.63
2019-05-19T14:05:10.415Z,99847.16
2019-05-19T14:10:34.987Z,99837.84
2019-05-19T14:15:59.486Z,99842.44
2019-05-19T14:21:24.063Z,99850.29
2019-05-19T14:26:47.823Z,99842.15
2019-05-19T14:32:11.823Z,99848.40
2019-05-19T14:37:36.519Z,99838.14
2019-05-19T14:43:02.223Z,99840.30
2019-05-19T14:48:26.940Z,99856.27
2019-05-19T14:53:50.958Z,99873.30
2019-05-19T14:59:14.852Z,99858.02
2019-05-19T15:04:38.695Z,99851.55
2019-05-19T15:10:03.301Z,99844.41
2019-05-19T15:15:27.374Z,99839.59
2019-05-19T15:20:51.139Z,99843.57
2019-05-19T15:26:14.851Z,99837.62
2019-05-19T15:31:38.804Z,99837.62
2019-05-19T15:37:03.620Z,99831.38
2019-05-19T15:42:28.013Z,99834.66
2019-05-19T15:47:52.726Z,99829.33
2019-05-19T15:53:17.462Z,99824.11
2019-05-19T15:58:42.356Z,99826.82
2019-05-19T16:04:06.866Z,99823.74
2019-05-19T16:09:31.484Z,99811.44
2019-05-19T16:14:56.449Z,99805.38
2019-05-19T16:20:20.824Z,99806.72
2019-05-19T16:25:44.799Z,99804.94
2019-05-19T16:31:08.726Z,99812.50
2019-05-19T16:36:32.487Z,99808.39
2019-05-19T16:41:56.913Z,99795.30
2019-05-19T16:47:22.003Z,99799.36
2019-05-19T16:52:47.581Z,99801.23
2019-05-19T16:58:20.553Z,99797.72
2019-05-19T17:03:37.554Z,99795.87
2019-05-19T17:09:02.121Z,99803.87
2019-05-19T17:14:28.243Z,99796.88
2019-05-19T17:19:52.745Z,99800.39
2019-05-19T17:25:18.341Z,99786.70
2019-05-19T17:30:42.869Z,99786.70
2019-05-19T17:36:07.370Z,99797.83
2019-05-19T17:41:32.953Z,99787.97
2019-05-19T17:46:57.606Z,99784.37
2019-05-19T17:52:22.137Z,99786.57
2019-05-19T17:57:47.833Z,99782.89
2019-05-19T18:03:12.679Z,99781.03
2019-05-19T18:08:36.620Z,99780.88
2019-05-19T18:14:01.281Z,99782.47
2019-05-19T18:19:25.326Z,99785.90
2019-05-19T18:24:49.192Z,99798.43
2019-05-19T18:30:15.615Z,99779.34
2019-05-19T18:35:39.483Z,99798.37
2019-05-19T18:41:03.926Z,99804.63
2019-05-19T18:46:28.689Z,99807.80
2019-05-19T18:51:53.252Z,99814.98
2019-05-19T18:57:18.028Z,99836.42
2019-05-19T19:02:42.031Z,99843.62
2019-05-19T19:08:05.918Z,99856.70
2019-05-19T19:13:30.858Z,99858.56
2019-05-19T19:18:55.500Z,99844.41
2019-05-19T19:24:20.329Z,99834.19
2019-05-19T19:29:44.990Z,99817.67
2019-05-19T19:35:10.129Z,99815.40
2019-05-19T19:40:34.742Z,99815.19
2019-05-19T19:45:58.890Z,99816.52
2019-05-19T19:51:23.609Z,99814.23
2019-05-19T19:56:48.256Z,99807.77
2019-05-19T20:02:12.166Z,99811.53
2019-05-19T20:07:36.738Z,99824.66
2019-05-19T20:13:01.101Z,99819.94
2019-05-19T20:18:24.916Z,99821.59
2019-05-19T20:23:48.544Z,99820.10
2019-05-19T20:29:13.482Z,99826.62
2019-05-19T20:34:38.183Z,99826.02
2019-05-19T20:40:03.988Z,99826.31
2019-05-19T20:45:28.564Z,99826.31
2019-05-19T20:50:53.174Z,99819.08
2019-05-19T20:56:17.057Z,99827.05
2019-05-19T21:01:44.918Z,99821.66
2019-05-19T21:07:07.872Z,99819.51
2019-05-19T21:12:32.933Z,99819.02
2019-05-19T21:17:56.624Z,99815.47
2019-05-19T21:23:20.260Z,99811.00
2019-05-19T21:28:44.698Z,99811.30
2019-05-19T21:34:09.297Z,99814.74
2019-05-19T21:39:33.902Z,99810.78
2019-05-19T21:44:58.607Z,99824.05
2019-05-19T21:50:23.355Z,99829.64
2019-05-19T21:55:48.067Z,99821.95
2019-05-19T22:01:22.935Z,99822.77
2019-05-19T22:06:40.218Z,99820.23
2019-05-19T22:12:04.302Z,99816.23
2019-05-19T22:17:27.897Z,99818.59
2019-05-19T22:22:52.859Z,99827.20
2019-05-19T22:28:17.374Z,99825.49
2019-05-19T22:33:41.167Z,99821.09
2019-05-19T22:39:07.948Z,99822.80
2019-05-19T22:44:32.389Z,99824.83
2019-05-19T22:49:57.087Z,99818.05
2019-05-19T22:55:21.871Z,99815.78
2019-05-19T23:00:45.814Z,99807.00
2019-05-19T23:06:09.977Z,99815.30
2019-05-19T23:11:34.101Z,99820.57
2019-05-19T23:16:57.815Z,99829.69
2019-05-19T23:22:21.824Z,99815.16
2019-05-19T23:27:46.575Z,99806.54
2019-05-19T23:33:11.095Z,99805.06
2019-05-19T23:38:35.621Z,99789.89
2019-05-19T23:44:00.053Z,99797.30
2019-05-19T23:49:24.427Z,99792.84
2019-05-19T23:54:48.593Z,99793.00
